Time;durP1;ratioP1;P1;durP2;ratioP2;P2;SDS_P1;SDS_P2;PMS_P1;PMS_P2;Temp;Humidity;BMP_temperature;BMP_pressure;BME280_temperature;BME280_humidity;BME280_pressure;Samples;Min_cycle;Max_cycle;Signal;HPM_P1;HPM_P2
2023/10/15 00:30:51;;;;;;;7.17;3.07;;;10.10;99.90;;;;;;6054944;23;20255;-81
2023/10/15 00:55:35;;;;;;;6.00;2.53;;;9.00;99.90;;;;;;5671924;24;20831;-83
2023/10/15 01:21:16;;;;;;;9.50;2.87;;;9.10;99.90;;;;;;5823476;24;20434;-82
2023/10/15 01:41:50;;;;;;;10.53;3.00;;;9.20;99.90;;;;;;5876304;23;20415;-83
2023/10/15 02:02:06;;;;;;;7.93;2.57;;;8.80;99.90;;;;;;5967271;23;20287;-83
2023/10/15 02:32:07;;;;;;;7.07;2.37;;;8.50;99.90;;;;;;5878113;23;20860;-81
2023/10/15 02:57:17;;;;;;;4.00;2.77;;;8.40;99.90;;;;;;5785741;24;20458;-83
2023/10/15 04:03:54;;;;;;;6.93;2.50;;;8.00;99.90;;;;;;5850516;23;20511;-81
2023/10/15 04:08:18;;;;;;;7.37;2.70;;;8.00;99.90;;;;;;5722747;24;20614;-83
2023/10/15 04:28:58;;;;;;;5.13;1.97;;;8.00;99.90;;;;;;5671836;24;20185;-82
2023/10/15 05:04:47;;;;;;;6.90;2.30;;;8.00;99.90;;;;;;5763440;24;20185;-83
2023/10/15 05:39:31;;;;;;;6.07;2.30;;;8.00;99.90;;;;;;5451100;25;21051;-82
2023/10/15 06:00:27;;;;;;;6.17;2.30;;;8.30;99.90;;;;;;5652945;24;20499;-85
2023/10/15 06:25:45;;;;;;;5.40;2.50;;;8.70;99.90;;;;;;5958147;23;20179;-81
2023/10/15 06:56:24;;;;;;;9.40;2.90;;;9.00;99.90;;;;;;5991796;23;20228;-83
2023/10/15 07:00:43;;;;;;;5.33;2.63;;;9.20;99.90;;;;;;5871076;23;20581;-84
2023/10/15 07:26:18;;;;;;;6.23;2.20;;;9.40;99.90;;;;;;5830178;24;20548;-86
2023/10/15 07:51:57;;;;;;;5.13;2.90;;;9.80;99.50;;;;;;5676215;24;20179;-83
2023/10/15 08:22:28;;;;;;;5.73;2.40;;;10.20;91.50;;;;;;5554648;25;20297;-81
2023/10/15 10:18:56;;;;;;;5.70;2.53;;;10.70;83.50;;;;;;5855763;23;20200;-84
2023/10/15 10:49:07;;;;;;;4.40;2.63;;;10.60;85.90;;;;;;5800764;23;20687;-83
2023/10/15 11:09:38;;;;;;;4.80;2.33;;;10.80;85.00;;;;;;5793306;23;20550;-84
2023/10/15 11:30:08;;;;;;;4.13;2.57;;;10.30;88.00;;;;;;5711981;24;20214;-83
2023/10/15 11:55:22;;;;;;;4.00;2.03;;;10.70;87.80;;;;;;5525258;25;20454;-82
2023/10/15 12:41:08;;;;;;;5.10;2.40;;;10.90;83.20;;;;;;5595087;24;20334;-82
2023/10/15 13:51:59;;;;;;;4.57;2.50;;;10.40;86.50;;;;;;5796111;24;20175;-84
2023/10/15 14:43:02;;;;;;;5.63;2.70;;;10.30;86.70;;;;;;5746369;24;20254;-84
2023/10/15 14:47:23;;;;;;;5.93;2.73;;;10.20;87.00;;;;;;5691207;24;20437;-84
2023/10/15 15:43:50;;;;;;;6.87;3.00;;;10.00;88.20;;;;;;5925967;23;20228;-85
2023/10/15 16:09:08;;;;;;;7.17;3.23;;;9.60;88.20;;;;;;6040253;23;20144;-82
2023/10/15 16:44:44;;;;;;;8.00;4.10;;;9.20;89.20;;;;;;5952966;23;20426;-85
2023/10/15 17:14:29;;;;;;;6.37;4.53;;;8.60;93.00;;;;;;5775788;24;20688;-84
2023/10/15 17:35:11;;;;;;;10.80;5.33;;;8.10;96.70;;;;;;5807432;24;20188;-81
2023/10/15 18:10:51;;;;;;;9.07;5.77;;;8.30;95.20;;;;;;5919172;23;20164;-82
2023/10/15 18:31:07;;;;;;;8.87;5.73;;;7.90;97.60;;;;;;5912244;23;20235;-85
2023/10/15 19:01:41;;;;;;;10.87;5.23;;;7.50;99.90;;;;;;5961223;23;20188;-83
2023/10/15 19:26:46;;;;;;;9.90;4.80;;;7.20;99.90;;;;;;5912694;23;20224;-82
2023/10/15 19:57:30;;;;;;;8.73;4.17;;;7.00;99.90;;;;;;5658084;24;20632;-83
2023/10/15 20:01:50;;;;;;;9.93;4.50;;;6.90;99.90;;;;;;5630766;24;20485;-83
2023/10/15 20:22:50;;;;;;;6.87;4.43;;;6.70;99.90;;;;;;5712200;24;20389;-84
2023/10/15 20:48:01;;;;;;;9.07;4.70;;;6.60;99.90;;;;;;5605871;25;20222;-84
2023/10/15 21:28:44;;;;;;;8.33;4.70;;;6.30;99.90;;;;;;5578480;25;20184;-83
2023/10/15 21:48:57;;;;;;;9.10;4.80;;;6.10;99.90;;;;;;5580404;25;20457;-83
2023/10/15 22:19:13;;;;;;;8.07;4.53;;;6.40;99.90;;;;;;5761672;24;20432;-82
2023/10/15 22:44:47;;;;;;;5.80;3.70;;;6.90;99.90;;;;;;5869448;23;20212;-83
